sensor_id;sensor_type;location;lat;lon;timestamp;pressure;altitude;pressure_sealevel;temperature;humidity
48796;BME280;34607;48.520;-1.330;2023-07-02T05:29:07;100138.09;;;14.11;100.00
48796;BME280;34607;48.520;-1.330;2023-07-02T05:31:34;100149.38;;;14.24;100.00
48796;BME280;34607;48.520;-1.330;2023-07-02T05:34:01;100145.03;;;14.24;100.00
48796;BME280;34607;48.520;-1.330;2023-07-02T05:36:28;100147.59;;;14.35;100.00
48796;BME280;34607;48.520;-1.330;2023-07-02T05:38:55;100146.75;;;14.38;100.00
48796;BME280;34607;48.520;-1.330;2023-07-02T05:41:22;100151.91;;;14.41;100.00
48796;BME280;34607;48.520;-1.330;2023-07-02T05:43:50;100149.31;;;14.46;100.00
48796;BME280;34607;48.520;-1.330;2023-07-02T05:46:20;100155.38;;;14.48;100.00
48796;BME280;34607;48.520;-1.330;2023-07-02T05:48:47;100142.38;;;14.41;100.00
48796;BME280;34607;48.520;-1.330;2023-07-02T05:51:14;100157.13;;;14.52;100.00
48796;BME280;34607;48.520;-1.330;2023-07-02T05:53:46;100151.91;;;14.49;100.00
48796;BME280;34607;48.520;-1.330;2023-07-02T05:56:13;100143.25;;;14.43;100.00
48796;BME280;34607;48.520;-1.330;2023-07-02T05:58:40;100138.91;;;14.42;100.00
48796;BME280;34607;48.520;-1.330;2023-07-02T06:01:07;100151.91;;;14.50;100.00
48796;BME280;34607;48.520;-1.330;2023-07-02T06:03:35;100158.88;;;14.59;100.00
48796;BME280;34607;48.520;-1.330;2023-07-02T06:06:03;100150.16;;;14.63;100.00
48796;BME280;34607;48.520;-1.330;2023-07-02T06:08:30;100166.63;;;14.76;100.00
48796;BME280;34607;48.520;-1.330;2023-07-02T06:10:57;100163.13;;;14.83;100.00
48796;BME280;34607;48.520;-1.330;2023-07-02T06:13:24;100151.84;;;14.78;100.00
48796;BME280;34607;48.520;-1.330;2023-07-02T06:15:51;100158.75;;;14.84;100.00
48796;BME280;34607;48.520;-1.330;2023-07-02T06:18:18;100169.19;;;14.88;100.00
48796;BME280;34607;48.520;-1.330;2023-07-02T06:20:47;100177.00;;;14.94;100.00
48796;BME280;34607;48.520;-1.330;2023-07-02T06:23:14;100177.78;;;15.06;100.00
48796;BME280;34607;48.520;-1.330;2023-07-02T06:25:41;100180.38;;;15.10;100.00
48796;BME280;34607;48.520;-1.330;2023-07-02T06:28:09;100180.38;;;15.15;100.00
48796;BME280;34607;48.520;-1.330;2023-07-02T06:30:36;100165.47;;;15.34;100.00
48796;BME280;34607;48.520;-1.330;2023-07-02T06:33:03;100176.69;;;15.45;100.00
48796;BME280;34607;48.520;-1.330;2023-07-02T06:35:30;100176.59;;;15.59;100.00
48796;BME280;34607;48.520;-1.330;2023-07-02T06:37:59;100173.97;;;15.64;100.00
48796;BME280;34607;48.520;-1.330;2023-07-02T06:40:26;100182.63;;;15.70;100.00
48796;BME280;34607;48.520;-1.330;2023-07-02T06:42:53;100163.50;;;15.65;100.00
48796;BME280;34607;48.520;-1.330;2023-07-02T06:45:20;100180.78;;;15.85;100.00
48796;BME280;34607;48.520;-1.330;2023-07-02T06:47:47;100188.56;;;15.93;100.00
48796;BME280;34607;48.520;-1.330;2023-07-02T06:50:14;100174.66;;;15.90;100.00
48796;BME280;34607;48.520;-1.330;2023-07-02T06:52:41;100185.13;;;15.90;100.00
48796;BME280;34607;48.520;-1.330;2023-07-02T06:55:10;100192.06;;;15.90;100.00
48796;BME280;34607;48.520;-1.330;2023-07-02T06:57:42;100196.38;;;15.97;100.00
48796;BME280;34607;48.520;-1.330;2023-07-02T07:00:10;100192.88;;;15.98;100.00
48796;BME280;34607;48.520;-1.330;2023-07-02T07:02:37;100194.50;;;16.10;100.00
48796;BME280;34607;48.520;-1.330;2023-07-02T07:05:05;100196.06;;;16.29;100.00
48796;BME280;34607;48.520;-1.330;2023-07-02T07:07:32;100195.84;;;16.51;100.00
48796;BME280;34607;48.520;-1.330;2023-07-02T07:09:59;100194.69;;;16.78;100.00
48796;BME280;34607;48.520;-1.330;2023-07-02T07:12:28;100198.03;;;16.93;100.00
48796;BME280;34607;48.520;-1.330;2023-07-02T07:14:55;100192.72;;;17.00;100.00
48796;BME280;34607;48.520;-1.330;2023-07-02T07:17:22;100199.38;;;17.25;100.00
48796;BME280;34607;48.520;-1.330;2023-07-02T07:19:49;100206.16;;;17.39;100.00
48796;BME280;34607;48.520;-1.330;2023-07-02T07:22:16;100198.13;;;17.52;100.00
48796;BME280;34607;48.520;-1.330;2023-07-02T07:24:43;100209.19;;;17.69;100.00
48796;BME280;34607;48.520;-1.330;2023-07-02T07:27:10;100203.75;;;17.83;99.57
48796;BME280;34607;48.520;-1.330;2023-07-02T07:29:39;100201.09;;;17.88;98.48
48796;BME280;34607;48.520;-1.330;2023-07-02T07:32:06;100195.56;;;18.06;98.56
48796;BME280;34607;48.520;-1.330;2023-07-02T07:34:34;100200.44;;;18.25;97.19
48796;BME280;34607;48.520;-1.330;2023-07-02T07:37:01;100204.63;;;18.35;95.59
48796;BME280;34607;48.520;-1.330;2023-07-02T07:39:28;100210.94;;;18.25;94.88
48796;BME280;34607;48.520;-1.330;2023-07-02T07:41:55;100206.06;;;18.05;94.93
48796;BME280;34607;48.520;-1.330;2023-07-02T07:44:22;100210.09;;;18.23;95.44
48796;BME280;34607;48.520;-1.330;2023-07-02T07:46:50;100215.09;;;18.37;93.78
48796;BME280;34607;48.520;-1.330;2023-07-02T07:49:17;100214.47;;;18.24;93.17
48796;BME280;34607;48.520;-1.330;2023-07-02T07:51:44;100218.53;;;18.40;93.86
48796;BME280;34607;48.520;-1.330;2023-07-02T07:54:11;100215.13;;;18.35;93.23
48796;BME280;34607;48.520;-1.330;2023-07-02T07:56:38;100226.66;;;18.25;93.84
48796;BME280;34607;48.520;-1.330;2023-07-02T07:59:05;100220.59;;;18.23;94.28
48796;BME280;34607;48.520;-1.330;2023-07-02T08:01:32;100223.78;;;18.40;92.92
48796;BME280;34607;48.520;-1.330;2023-07-02T08:04:01;100215.31;;;18.72;92.35
48796;BME280;34607;48.520;-1.330;2023-07-02T08:06:28;100225.00;;;18.69;91.20
48796;BME280;34607;48.520;-1.330;2023-07-02T08:08:55;100193.44;;;18.28;90.76
48796;BME280;34607;48.520;-1.330;2023-07-02T08:11:22;100226.50;;;18.36;91.02
48796;BME280;34607;48.520;-1.330;2023-07-02T08:13:49;100235.38;;;18.28;91.33
48796;BME280;34607;48.520;-1.330;2023-07-02T08:16:16;100226.91;;;18.59;91.53
48796;BME280;34607;48.520;-1.330;2023-07-02T08:18:43;100231.00;;;18.76;89.83
48796;BME280;34607;48.520;-1.330;2023-07-02T08:21:11;100238.16;;;18.66;89.57
48796;BME280;34607;48.520;-1.330;2023-07-02T08:23:38;100233.16;;;18.53;89.22
48796;BME280;34607;48.520;-1.330;2023-07-02T08:26:06;100236.81;;;18.45;89.31
48796;BME280;34607;48.520;-1.330;2023-07-02T08:28:33;100232.47;;;18.92;87.65
48796;BME280;34607;48.520;-1.330;2023-07-02T08:31:00;100234.16;;;18.93;85.85
48796;BME280;34607;48.520;-1.330;2023-07-02T08:33:27;100207.28;;;18.83;84.77
48796;BME280;34607;48.520;-1.330;2023-07-02T08:35:54;100234.97;;;19.39;84.35
48796;BME280;34607;48.520;-1.330;2023-07-02T08:38:22;100239.00;;;19.55;82.48
48796;BME280;34607;48.520;-1.330;2023-07-02T08:40:50;100239.13;;;19.49;82.56
48796;BME280;34607;48.520;-1.330;2023-07-02T08:43:17;100234.47;;;19.99;81.50
48796;BME280;34607;48.520;-1.330;2023-07-02T08:45:44;100241.94;;;20.51;80.60
48796;BME280;34607;48.520;-1.330;2023-07-02T08:48:12;100236.03;;;20.77;79.30
48796;BME280;34607;48.520;-1.330;2023-07-02T08:50:39;100237.53;;;20.86;78.62
48796;BME280;34607;48.520;-1.330;2023-07-02T08:53:06;100245.31;;;20.56;78.18
48796;BME280;34607;48.520;-1.330;2023-07-02T08:55:34;100249.19;;;20.77;77.81
48796;BME280;34607;48.520;-1.330;2023-07-02T08:58:01;100247.88;;;21.23;77.35
48796;BME280;34607;48.520;-1.330;2023-07-02T09:00:29;100249.13;;;21.10;77.71
48796;BME280;34607;48.520;-1.330;2023-07-02T09:02:58;100254.25;;;21.14;76.89
48796;BME280;34607;48.520;-1.330;2023-07-02T09:05:25;100248.31;;;21.08;77.19
48796;BME280;34607;48.520;-1.330;2023-07-02T09:07:52;100256.16;;;20.78;77.24
48796;BME280;34607;48.520;-1.330;2023-07-02T09:10:28;100255.25;;;20.46;77.14
48796;BME280;34607;48.520;-1.330;2023-07-02T09:13:07;100253.78;;;19.98;77.46
48796;BME280;34607;48.520;-1.330;2023-07-02T09:15:36;100244.56;;;19.80;79.81
48796;BME280;34607;48.520;-1.330;2023-07-02T09:18:14;100251.56;;;19.81;78.39
48796;BME280;34607;48.520;-1.330;2023-07-02T09:20:42;100259.59;;;20.11;78.89
48796;BME280;34607;48.520;-1.330;2023-07-02T09:23:09;100242.16;;;20.43;78.39
48796;BME280;34607;48.520;-1.330;2023-07-02T09:25:37;100241.25;;;20.44;78.75
48796;BME280;34607;48.520;-1.330;2023-07-02T09:28:16;100245.66;;;20.44;77.36
48796;BME280;34607;48.520;-1.330;2023-07-02T09:30:54;100249.66;;;20.24;75.75
48796;BME280;34607;48.520;-1.330;2023-07-02T09:33:23;100243.38;;;20.64;76.59
48796;BME280;34607;48.520;-1.330;2023-07-02T09:35:50;100243.25;;;20.69;75.80
48796;BME280;34607;48.520;-1.330;2023-07-02T09:38:17;100248.31;;;20.42;75.63
48796;BME280;34607;48.520;-1.330;2023-07-02T09:40:46;100252.81;;;20.37;76.65
48796;BME280;34607;48.520;-1.330;2023-07-02T09:43:15;100254.59;;;20.36;76.30
48796;BME280;34607;48.520;-1.330;2023-07-02T09:45:44;100253.78;;;20.34;77.91
48796;BME280;34607;48.520;-1.330;2023-07-02T09:48:13;100258.41;;;20.92;78.00
48796;BME280;34607;48.520;-1.330;2023-07-02T09:50:41;100244.00;;;21.65;76.57
48796;BME280;34607;48.520;-1.330;2023-07-02T09:53:10;100251.09;;;22.18;74.82
48796;BME280;34607;48.520;-1.330;2023-07-02T09:55:37;100255.00;;;22.06;73.41
48796;BME280;34607;48.520;-1.330;2023-07-02T09:58:05;100248.25;;;21.69;72.41
48796;BME280;34607;48.520;-1.330;2023-07-02T10:00:33;100262.16;;;21.14;73.59
48796;BME280;34607;48.520;-1.330;2023-07-02T10:03:01;100255.22;;;21.12;74.48
48796;BME280;34607;48.520;-1.330;2023-07-02T10:05:29;100264.16;;;21.66;73.67
48796;BME280;34607;48.520;-1.330;2023-07-02T10:07:59;100255.63;;;22.14;71.42
48796;BME280;34607;48.520;-1.330;2023-07-02T10:10:38;100251.06;;;22.46;70.59
48796;BME280;34607;48.520;-1.330;2023-07-02T10:13:05;100251.47;;;22.84;69.72
48796;BME280;34607;48.520;-1.330;2023-07-02T10:15:33;100232.56;;;23.44;68.22
48796;BME280;34607;48.520;-1.330;2023-07-02T10:18:03;100253.34;;;23.75;67.69
48796;BME280;34607;48.520;-1.330;2023-07-02T10:20:32;100261.13;;;22.85;68.20
48796;BME280;34607;48.520;-1.330;2023-07-02T10:22:59;100268.34;;;22.30;69.17
48796;BME280;34607;48.520;-1.330;2023-07-02T10:25:28;100249.47;;;21.87;68.69
48796;BME280;34607;48.520;-1.330;2023-07-02T10:27:56;100275.19;;;22.07;67.79
48796;BME280;34607;48.520;-1.330;2023-07-02T10:30:35;100266.16;;;21.87;68.38
48796;BME280;34607;48.520;-1.330;2023-07-02T10:33:10;100260.03;;;21.87;69.36
48796;BME280;34607;48.520;-1.330;2023-07-02T10:35:37;100224.91;;;22.40;67.66
48796;BME280;34607;48.520;-1.330;2023-07-02T10:38:04;100267.88;;;22.43;66.00
48796;BME280;34607;48.520;-1.330;2023-07-02T10:40:33;100267.03;;;22.15;66.82
48796;BME280;34607;48.520;-1.330;2023-07-02T10:43:00;100265.66;;;22.03;66.71
48796;BME280;34607;48.520;-1.330;2023-07-02T10:45:35;100248.31;;;22.49;66.32
48796;BME280;34607;48.520;-1.330;2023-07-02T10:48:02;100250.75;;;23.04;64.99
48796;BME280;34607;48.520;-1.330;2023-07-02T10:50:31;100255.31;;;23.48;65.17
48796;BME280;34607;48.520;-1.330;2023-07-02T10:52:58;100252.06;;;24.07;63.47
48796;BME280;34607;48.520;-1.330;2023-07-02T10:55:26;100257.59;;;23.79;63.45
48796;BME280;34607;48.520;-1.330;2023-07-02T10:58:04;100253.75;;;23.88;62.68
48796;BME280;34607;48.520;-1.330;2023-07-02T11:00:31;100251.56;;;23.99;62.51
48796;BME280;34607;48.520;-1.330;2023-07-02T11:03:00;100246.38;;;24.39;62.63
48796;BME280;34607;48.520;-1.330;2023-07-02T11:05:27;100243.09;;;24.11;60.69
48796;BME280;34607;48.520;-1.330;2023-07-02T11:07:54;100245.03;;;23.16;61.57
48796;BME280;34607;48.520;-1.330;2023-07-02T11:10:23;100250.47;;;23.13;62.94
48796;BME280;34607;48.520;-1.330;2023-07-02T11:12:51;100257.91;;;23.26;61.97
48796;BME280;34607;48.520;-1.330;2023-07-02T11:15:18;100260.59;;;22.50;61.60
48796;BME280;34607;48.520;-1.330;2023-07-02T11:17:46;100269.25;;;22.79;62.06
48796;BME280;34607;48.520;-1.330;2023-07-02T11:20:14;100255.06;;;23.54;60.94
48796;BME280;34607;48.520;-1.330;2023-07-02T11:22:42;100259.88;;;24.10;59.42
48796;BME280;34607;48.520;-1.330;2023-07-02T11:25:13;100254.84;;;24.67;59.32
48796;BME280;34607;48.520;-1.330;2023-07-02T11:27:41;100246.56;;;24.34;59.57
48796;BME280;34607;48.520;-1.330;2023-07-02T11:30:09;100257.22;;;23.66;60.29
48796;BME280;34607;48.520;-1.330;2023-07-02T11:32:47;100262.03;;;23.33;60.28
48796;BME280;34607;48.520;-1.330;2023-07-02T11:35:17;100263.00;;;22.56;62.03
48796;BME280;34607;48.520;-1.330;2023-07-02T11:37:44;100262.59;;;22.15;63.36
48796;BME280;34607;48.520;-1.330;2023-07-02T11:40:12;100264.56;;;22.37;63.25
48796;BME280;34607;48.520;-1.330;2023-07-02T11:42:40;100262.25;;;22.53;62.97
48796;BME280;34607;48.520;-1.330;2023-07-02T11:45:08;100263.81;;;22.58;62.50
48796;BME280;34607;48.520;-1.330;2023-07-02T11:47:35;100267.69;;;22.48;62.63
48796;BME280;34607;48.520;-1.330;2023-07-02T11:50:03;100270.50;;;22.43;62.49
48796;BME280;34607;48.520;-1.330;2023-07-02T11:52:31;100267.91;;;22.42;63.07
48796;BME280;34607;48.520;-1.330;2023-07-02T11:54:58;100275.84;;;23.41;62.27
48796;BME280;34607;48.520;-1.330;2023-07-02T11:57:25;100269.53;;;23.67;61.37
48796;BME280;34607;48.520;-1.330;2023-07-02T11:59:52;100256.31;;;23.67;60.90
48796;BME280;34607;48.520;-1.330;2023-07-02T12:02:19;100270.94;;;23.30;60.97
48796;BME280;34607;48.520;-1.330;2023-07-02T12:04:46;100271.97;;;23.26;61.58
48796;BME280;34607;48.520;-1.330;2023-07-02T12:07:13;100257.03;;;23.49;62.39
48796;BME280;34607;48.520;-1.330;2023-07-02T12:09:42;100264.19;;;23.69;61.34
48796;BME280;34607;48.520;-1.330;2023-07-02T12:12:10;100267.53;;;23.96;61.13
48796;BME280;34607;48.520;-1.330;2023-07-02T12:14:37;100267.03;;;23.41;61.40
48796;BME280;34607;48.520;-1.330;2023-07-02T12:17:08;100246.63;;;23.66;60.68
48796;BME280;34607;48.520;-1.330;2023-07-02T12:19:38;100278.53;;;23.40;60.43
48796;BME280;34607;48.520;-1.330;2023-07-02T12:22:05;100274.25;;;23.59;61.27
48796;BME280;34607;48.520;-1.330;2023-07-02T12:24:33;100267.69;;;24.14;60.68
48796;BME280;34607;48.520;-1.330;2023-07-02T12:27:01;100266.06;;;24.52;60.65
48796;BME280;34607;48.520;-1.330;2023-07-02T12:29:28;100255.91;;;24.84;59.92
48796;BME280;34607;48.520;-1.330;2023-07-02T12:31:55;100280.16;;;24.54;58.79
48796;BME280;34607;48.520;-1.330;2023-07-02T12:34:22;100269.84;;;24.46;59.03
48796;BME280;34607;48.520;-1.330;2023-07-02T12:36:49;100282.16;;;23.83;60.16
48796;BME280;34607;48.520;-1.330;2023-07-02T12:39:16;100284.44;;;23.23;60.86
48796;BME280;34607;48.520;-1.330;2023-07-02T12:41:43;100291.34;;;23.02;61.93
48796;BME280;34607;48.520;-1.330;2023-07-02T12:44:11;100287.19;;;23.43;60.41
48796;BME280;34607;48.520;-1.330;2023-07-02T12:46:38;100295.97;;;23.20;60.38
48796;BME280;34607;48.520;-1.330;2023-07-02T12:49:05;100287.13;;;23.21;61.05
48796;BME280;34607;48.520;-1.330;2023-07-02T12:51:32;100290.97;;;24.05;60.06
48796;BME280;34607;48.520;-1.330;2023-07-02T12:53:59;100295.78;;;24.38;59.79
48796;BME280;34607;48.520;-1.330;2023-07-02T12:56:26;100295.50;;;24.02;59.56
48796;BME280;34607;48.520;-1.330;2023-07-02T12:58:53;100297.03;;;24.07;59.64
48796;BME280;34607;48.520;-1.330;2023-07-02T13:01:22;100287.81;;;24.18;59.56
48796;BME280;34607;48.520;-1.330;2023-07-02T13:03:50;100303.56;;;23.99;59.66
48796;BME280;34607;48.520;-1.330;2023-07-02T13:06:17;100299.97;;;23.78;59.99
48796;BME280;34607;48.520;-1.330;2023-07-02T13:08:44;100286.72;;;23.55;60.20
48796;BME280;34607;48.520;-1.330;2023-07-02T13:11:11;100300.75;;;23.10;60.76
48796;BME280;34607;48.520;-1.330;2023-07-02T13:13:38;100300.09;;;22.78;61.68
48796;BME280;34607;48.520;-1.330;2023-07-02T13:16:05;100299.19;;;22.79;63.24
48796;BME280;34607;48.520;-1.330;2023-07-02T13:18:34;100293.16;;;22.49;63.32
48796;BME280;34607;48.520;-1.330;2023-07-02T13:21:01;100308.72;;;22.32;62.92
48796;BME280;34607;48.520;-1.330;2023-07-02T13:23:28;100289.16;;;22.11;63.09
48796;BME280;34607;48.520;-1.330;2023-07-02T13:25:55;100301.94;;;22.23;63.76
48796;BME280;34607;48.520;-1.330;2023-07-02T13:28:22;100295.38;;;22.08;64.16
48796;BME280;34607;48.520;-1.330;2023-07-02T13:30:50;100295.47;;;22.05;64.54
48796;BME280;34607;48.520;-1.330;2023-07-02T13:33:17;100298.78;;;22.12;65.19
48796;BME280;34607;48.520;-1.330;2023-07-02T13:35:46;100290.06;;;21.81;65.11
48796;BME280;34607;48.520;-1.330;2023-07-02T13:38:13;100290.94;;;21.82;65.13
48796;BME280;34607;48.520;-1.330;2023-07-02T13:40:40;100282.91;;;21.57;65.98
48796;BME280;34607;48.520;-1.330;2023-07-02T13:43:07;100297.53;;;21.67;66.34
48796;BME280;34607;48.520;-1.330;2023-07-02T13:45:34;100295.97;;;21.61;66.46
48796;BME280;34607;48.520;-1.330;2023-07-02T13:48:01;100299.56;;;21.57;66.19
48796;BME280;34607;48.520;-1.330;2023-07-02T13:50:28;100291.41;;;21.35;66.53
48796;BME280;34607;48.520;-1.330;2023-07-02T13:52:56;100295.00;;;21.32;68.33
48796;BME280;34607;48.520;-1.330;2023-07-02T13:55:23;100302.50;;;21.48;68.56
48796;BME280;34607;48.520;-1.330;2023-07-02T13:57:53;100290.78;;;21.58;67.70
48796;BME280;34607;48.520;-1.330;2023-07-02T14:00:23;100283.72;;;21.59;67.94
48796;BME280;34607;48.520;-1.330;2023-07-02T14:02:50;100273.09;;;21.32;69.26
48796;BME280;34607;48.520;-1.330;2023-07-02T14:05:17;100298.13;;;21.45;69.29
48796;BME280;34607;48.520;-1.330;2023-07-02T14:07:44;100300.59;;;21.53;69.41
48796;BME280;34607;48.520;-1.330;2023-07-02T14:10:12;100287.66;;;21.44;70.01
48796;BME280;34607;48.520;-1.330;2023-07-02T14:12:39;100304.28;;;21.46;69.73
48796;BME280;34607;48.520;-1.330;2023-07-02T14:15:08;100294.88;;;21.37;70.05
48796;BME280;34607;48.520;-1.330;2023-07-02T14:17:37;100292.88;;;21.45;70.13
48796;BME280;34607;48.520;-1.330;2023-07-02T14:20:05;100289.38;;;21.45;69.93
48796;BME280;34607;48.520;-1.330;2023-07-02T14:22:32;100286.41;;;21.57;69.13
48796;BME280;34607;48.520;-1.330;2023-07-02T14:24:59;100289.59;;;21.68;68.41
48796;BME280;34607;48.520;-1.330;2023-07-02T14:27:26;100282.06;;;21.84;67.80
48796;BME280;34607;48.520;-1.330;2023-07-02T14:32:20;100276.69;;;21.87;67.12
48796;BME280;34607;48.520;-1.330;2023-07-02T14:34:49;100283.06;;;21.80;66.83
48796;BME280;34607;48.520;-1.330;2023-07-02T14:37:16;100284.00;;;21.78;66.32
48796;BME280;34607;48.520;-1.330;2023-07-02T14:39:43;100289.91;;;21.86;66.24
48796;BME280;34607;48.520;-1.330;2023-07-02T14:42:10;100287.41;;;21.81;66.14
48796;BME280;34607;48.520;-1.330;2023-07-02T14:44:37;100289.16;;;21.82;66.47
48796;BME280;34607;48.520;-1.330;2023-07-02T14:47:04;100276.78;;;21.84;66.46
48796;BME280;34607;48.520;-1.330;2023-07-02T14:49:31;100289.72;;;21.92;67.36
48796;BME280;34607;48.520;-1.330;2023-07-02T14:52:00;100281.06;;;21.88;66.59
48796;BME280;34607;48.520;-1.330;2023-07-02T14:54:27;100288.72;;;21.96;66.10
48796;BME280;34607;48.520;-1.330;2023-07-02T14:56:54;100284.94;;;21.77;66.38
48796;BME280;34607;48.520;-1.330;2023-07-02T14:59:21;100284.66;;;21.58;67.02
48796;BME280;34607;48.520;-1.330;2023-07-02T15:01:48;100293.16;;;21.66;66.56
48796;BME280;34607;48.520;-1.330;2023-07-02T15:04:15;100287.16;;;21.61;66.97
48796;BME280;34607;48.520;-1.330;2023-07-02T15:06:42;100286.44;;;21.56;67.29
48796;BME280;34607;48.520;-1.330;2023-07-02T15:09:11;100286.13;;;21.66;67.32
48796;BME280;34607;48.520;-1.330;2023-07-02T15:11:38;100279.81;;;21.72;67.28
48796;BME280;34607;48.520;-1.330;2023-07-02T15:14:05;100287.50;;;21.80;66.36
48796;BME280;34607;48.520;-1.330;2023-07-02T15:16:32;100286.38;;;21.87;66.18
48796;BME280;34607;48.520;-1.330;2023-07-02T15:18:59;100280.06;;;21.64;67.11
48796;BME280;34607;48.520;-1.330;2023-07-02T15:21:26;100291.59;;;21.60;66.51
48796;BME280;34607;48.520;-1.330;2023-07-02T15:23:54;100285.38;;;21.63;67.14
48796;BME280;34607;48.520;-1.330;2023-07-02T15:26:22;100285.06;;;21.72;67.98
48796;BME280;34607;48.520;-1.330;2023-07-02T15:28:50;100283.50;;;21.66;67.62
48796;BME280;34607;48.520;-1.330;2023-07-02T15:31:17;100286.91;;;21.70;66.95
48796;BME280;34607;48.520;-1.330;2023-07-02T15:33:44;100282.78;;;21.30;67.92
48796;BME280;34607;48.520;-1.330;2023-07-02T15:36:11;100278.09;;;21.40;67.91
48796;BME280;34607;48.520;-1.330;2023-07-02T15:38:39;100249.94;;;21.42;67.74
48796;BME280;34607;48.520;-1.330;2023-07-02T15:41:09;100273.63;;;21.73;67.04
48796;BME280;34607;48.520;-1.330;2023-07-02T15:43:38;100277.34;;;21.66;66.91
48796;BME280;34607;48.520;-1.330;2023-07-02T15:46:05;100244.16;;;21.30;67.29
48796;BME280;34607;48.520;-1.330;2023-07-02T15:48:32;100269.09;;;21.48;67.39
48796;BME280;34607;48.520;-1.330;2023-07-02T15:51:02;100269.91;;;21.50;67.13
48796;BME280;34607;48.520;-1.330;2023-07-02T15:53:31;100226.44;;;21.36;67.85
48796;BME280;34607;48.520;-1.330;2023-07-02T15:55:59;100271.03;;;21.72;67.65
48796;BME280;34607;48.520;-1.330;2023-07-02T15:58:28;100267.69;;;21.35;68.82
48796;BME280;34607;48.520;-1.330;2023-07-02T16:01:08;100268.28;;;21.46;68.57
48796;BME280;34607;48.520;-1.330;2023-07-02T16:03:35;100253.84;;;21.60;68.58
48796;BME280;34607;48.520;-1.330;2023-07-02T16:06:03;100261.97;;;21.80;67.89
48796;BME280;34607;48.520;-1.330;2023-07-02T16:08:30;100253.88;;;21.86;68.28
48796;BME280;34607;48.520;-1.330;2023-07-02T16:10:57;100248.91;;;21.77;67.99
48796;BME280;34607;48.520;-1.330;2023-07-02T16:13:24;100254.94;;;21.81;69.17
48796;BME280;34607;48.520;-1.330;2023-07-02T16:15:51;100240.63;;;21.88;68.30
48796;BME280;34607;48.520;-1.330;2023-07-02T16:18:20;100256.84;;;22.04;68.11
48796;BME280;34607;48.520;-1.330;2023-07-02T16:20:54;100238.50;;;21.73;67.67
48796;BME280;34607;48.520;-1.330;2023-07-02T16:23:22;100251.25;;;21.58;68.85
48796;BME280;34607;48.520;-1.330;2023-07-02T16:25:53;100254.66;;;21.62;69.30
48796;BME280;34607;48.520;-1.330;2023-07-02T16:28:20;100251.88;;;21.66;69.80
48796;BME280;34607;48.520;-1.330;2023-07-02T16:30:47;100246.66;;;21.65;69.39
48796;BME280;34607;48.520;-1.330;2023-07-02T16:33:16;100248.06;;;21.45;69.60
48796;BME280;34607;48.520;-1.330;2023-07-02T16:35:45;100256.13;;;21.11;69.52
48796;BME280;34607;48.520;-1.330;2023-07-02T16:38:12;100248.75;;;20.92;70.93
48796;BME280;34607;48.520;-1.330;2023-07-02T16:40:39;100246.44;;;21.13;71.35
48796;BME280;34607;48.520;-1.330;2023-07-02T16:43:06;100247.88;;;21.23;70.67
48796;BME280;34607;48.520;-1.330;2023-07-02T16:45:34;100245.28;;;21.22;70.45
48796;BME280;34607;48.520;-1.330;2023-07-02T16:48:01;100244.53;;;21.18;71.16
48796;BME280;34607;48.520;-1.330;2023-07-02T16:50:28;100249.81;;;20.85;71.56
48796;BME280;34607;48.520;-1.330;2023-07-02T16:52:56;100246.41;;;20.82;72.66
48796;BME280;34607;48.520;-1.330;2023-07-02T16:55:23;100241.06;;;20.85;72.60
48796;BME280;34607;48.520;-1.330;2023-07-02T16:57:50;100250.00;;;20.79;72.24
48796;BME280;34607;48.520;-1.330;2023-07-02T17:00:18;100246.31;;;20.52;72.58
48796;BME280;34607;48.520;-1.330;2023-07-02T17:02:45;100228.69;;;20.21;73.26
48796;BME280;34607;48.520;-1.330;2023-07-02T17:05:12;100242.53;;;20.29;72.77
48796;BME280;34607;48.520;-1.330;2023-07-02T17:07:39;100245.03;;;19.98;74.16
48796;BME280;34607;48.520;-1.330;2023-07-02T17:10:08;100236.34;;;20.30;73.96
48796;BME280;34607;48.520;-1.330;2023-07-02T17:12:35;100239.47;;;20.46;72.85
48796;BME280;34607;48.520;-1.330;2023-07-02T17:15:04;100240.22;;;20.50;73.28
48796;BME280;34607;48.520;-1.330;2023-07-02T17:17:31;100238.16;;;20.28;73.06
48796;BME280;34607;48.520;-1.330;2023-07-02T17:19:59;100233.84;;;20.26;73.27
48796;BME280;34607;48.520;-1.330;2023-07-02T17:22:27;100232.72;;;20.36;73.62
48796;BME280;34607;48.520;-1.330;2023-07-02T17:24:56;100232.00;;;20.29;73.17
48796;BME280;34607;48.520;-1.330;2023-07-02T17:27:29;100234.28;;;20.09;73.70
48796;BME280;34607;48.520;-1.330;2023-07-02T17:29:59;100236.81;;;19.76;74.39
48796;BME280;34607;48.520;-1.330;2023-07-02T17:32:27;100210.47;;;19.40;74.79
48796;BME280;34607;48.520;-1.330;2023-07-02T17:34:54;100234.69;;;19.51;75.46
48796;BME280;34607;48.520;-1.330;2023-07-02T17:37:21;100229.47;;;19.50;75.12
48796;BME280;34607;48.520;-1.330;2023-07-02T17:39:49;100232.44;;;19.34;75.05
48796;BME280;34607;48.520;-1.330;2023-07-02T17:42:17;100224.56;;;19.34;75.05
48796;BME280;34607;48.520;-1.330;2023-07-02T17:44:46;100233.88;;;19.49;75.27
48796;BME280;34607;48.520;-1.330;2023-07-02T17:47:15;100223.72;;;19.34;75.02
48796;BME280;34607;48.520;-1.330;2023-07-02T17:49:44;100229.31;;;19.57;74.97
48796;BME280;34607;48.520;-1.330;2023-07-02T17:52:13;100224.69;;;19.67;74.86
48796;BME280;34607;48.520;-1.330;2023-07-02T17:54:43;100224.44;;;19.81;74.63
48796;BME280;34607;48.520;-1.330;2023-07-02T17:57:11;100221.72;;;19.84;73.96
48796;BME280;34607;48.520;-1.330;2023-07-02T17:59:39;100223.22;;;19.94;74.36
48796;BME280;34607;48.520;-1.330;2023-07-02T18:02:09;100223.97;;;19.99;74.40
48796;BME280;34607;48.520;-1.330;2023-07-02T18:04:37;100221.22;;;20.04;74.73
48796;BME280;34607;48.520;-1.330;2023-07-02T18:07:07;100223.94;;;20.01;74.76
48796;BME280;34607;48.520;-1.330;2023-07-02T18:09:35;100225.13;;;19.88;74.80
48796;BME280;34607;48.520;-1.330;2023-07-02T18:12:02;100231.34;;;19.85;75.43